createdAt,value
2017-07-27T00:01:35.846Z,100492
2017-07-27T00:04:04.046Z,100490
2017-07-27T00:06:32.271Z,100487
2017-07-27T00:09:00.523Z,100487
2017-07-27T00:11:28.736Z,100478
2017-07-27T00:13:56.959Z,100479
2017-07-27T00:16:25.215Z,100476
2017-07-27T00:18:54.180Z,100473
2017-07-27T00:21:22.384Z,100472
2017-07-27T00:23:51.400Z,100458
2017-07-27T00:26:19.601Z,100457
2017-07-27T00:28:47.815Z,100460
2017-07-27T00:31:16.203Z,100466
2017-07-27T00:33:45.180Z,100460
2017-07-27T00:36:13.371Z,100462
2017-07-27T00:38:41.606Z,100453
2017-07-27T00:41:09.806Z,100456
2017-07-27T00:43:38.006Z,100454
2017-07-27T00:46:07.031Z,100456
2017-07-27T00:48:35.234Z,100456
2017-07-27T00:51:03.432Z,100449
2017-07-27T00:53:31.684Z,100447
2017-07-27T00:55:59.908Z,100449
2017-07-27T00:58:28.880Z,100444
2017-07-27T01:00:57.126Z,100445
2017-07-27T01:03:25.317Z,100448
2017-07-27T01:05:53.512Z,100456
2017-07-27T01:08:21.752Z,100448
2017-07-27T01:10:49.957Z,100453
2017-07-27T01:13:18.142Z,100448
2017-07-27T01:15:47.149Z,100441
2017-07-27T01:18:16.127Z,100438
2017-07-27T01:20:44.315Z,100444
2017-07-27T01:23:13.299Z,100433
2017-07-27T01:25:41.490Z,100434
2017-07-27T01:28:10.457Z,100430
2017-07-27T01:30:38.721Z,100431
2017-07-27T01:33:06.941Z,100423
2017-07-27T01:35:35.126Z,100424
2017-07-27T01:38:03.362Z,100425
2017-07-27T01:40:31.564Z,100428
2017-07-27T01:43:00.533Z,100422
2017-07-27T01:45:29.508Z,100419
2017-07-27T01:47:57.665Z,100421
2017-07-27T01:50:25.839Z,100422
2017-07-27T01:52:54.041Z,100413
2017-07-27T01:55:22.219Z,100428
2017-07-27T01:57:50.375Z,100412
2017-07-27T02:00:18.575Z,100397
2017-07-27T02:02:46.729Z,100405
2017-07-27T02:05:14.904Z,100397
2017-07-27T02:07:43.109Z,100400
2017-07-27T02:10:12.060Z,100389
2017-07-27T02:12:40.232Z,100392
2017-07-27T02:15:08.436Z,100383
2017-07-27T02:17:36.609Z,100382
2017-07-27T02:20:04.767Z,100382
2017-07-27T02:22:32.991Z,100377
2017-07-27T02:25:01.941Z,100369
2017-07-27T02:27:30.099Z,100369
2017-07-27T02:29:58.296Z,100381
2017-07-27T02:32:26.454Z,100374
2017-07-27T02:34:54.616Z,100377
2017-07-27T02:37:22.802Z,100366
2017-07-27T02:39:50.964Z,100369
2017-07-27T02:42:19.123Z,100369
2017-07-27T02:44:47.330Z,100365
2017-07-27T02:47:15.503Z,100364
2017-07-27T02:49:43.665Z,100360
2017-07-27T02:52:11.853Z,100369
2017-07-27T02:54:40.029Z,100359
2017-07-27T02:57:08.180Z,100360
2017-07-27T02:59:36.376Z,100355
2017-07-27T03:02:04.551Z,100361
2017-07-27T03:04:32.710Z,100358
2017-07-27T03:07:00.910Z,100345
2017-07-27T03:09:29.066Z,100349
2017-07-27T03:11:57.247Z,100342
2017-07-27T03:14:25.468Z,100335
2017-07-27T03:16:54.408Z,100343
2017-07-27T03:19:22.584Z,100341
2017-07-27T03:21:50.771Z,100333
2017-07-27T03:24:18.948Z,100351
2017-07-27T03:26:47.107Z,100338
2017-07-27T03:29:15.316Z,100335
2017-07-27T03:31:43.504Z,100338
2017-07-27T03:34:12.445Z,100335
2017-07-27T03:36:40.635Z,100332
2017-07-27T03:39:08.827Z,100323
2017-07-27T03:41:37.003Z,100330
2017-07-27T03:44:05.623Z,100325
2017-07-27T03:46:33.801Z,100331
2017-07-27T03:49:01.968Z,100333
2017-07-27T03:51:30.172Z,100333
2017-07-27T03:53:58.354Z,100322
2017-07-27T03:56:26.520Z,100330
2017-07-27T03:58:54.709Z,100330
2017-07-27T04:01:22.885Z,100324
2017-07-27T04:03:51.035Z,100313
2017-07-27T04:06:19.246Z,100318
2017-07-27T04:08:47.406Z,100313
2017-07-27T04:11:15.576Z,100315
2017-07-27T04:13:43.757Z,100315
2017-07-27T04:16:11.934Z,100322
2017-07-27T04:18:40.081Z,100312
2017-07-27T04:21:09.025Z,100313
2017-07-27T04:23:37.200Z,100300
2017-07-27T04:26:05.383Z,100303
2017-07-27T04:28:33.577Z,100295
2017-07-27T04:31:01.737Z,100306
2017-07-27T04:33:29.895Z,100296
2017-07-27T04:35:58.070Z,100289
2017-07-27T04:38:26.245Z,100289
2017-07-27T04:40:54.435Z,100292
2017-07-27T04:43:22.636Z,100292
2017-07-27T04:45:51.592Z,100297
2017-07-27T04:48:19.756Z,100289
2017-07-27T04:50:47.938Z,100288
2017-07-27T04:53:16.114Z,100288
2017-07-27T04:55:44.279Z,100297
2017-07-27T04:58:12.473Z,100294
2017-07-27T05:00:40.630Z,100302
2017-07-27T05:03:09.716Z,100293
2017-07-27T05:05:37.920Z,100288
2017-07-27T05:08:06.078Z,100281
2017-07-27T05:10:34.230Z,100282
2017-07-27T05:13:02.451Z,100286
2017-07-27T05:15:30.603Z,100281
2017-07-27T05:17:58.782Z,100288
2017-07-27T05:20:26.989Z,100293
2017-07-27T05:22:55.172Z,100294
2017-07-27T05:25:23.344Z,100284
2017-07-27T05:27:51.534Z,100279
2017-07-27T05:30:20.459Z,100286
2017-07-27T05:32:48.638Z,100295
2017-07-27T05:35:16.830Z,100295
2017-07-27T05:37:45.010Z,100289
2017-07-27T05:40:13.186Z,100291
2017-07-27T05:42:41.396Z,100279
2017-07-27T05:45:10.318Z,100294
2017-07-27T05:47:38.497Z,100291
2017-07-27T05:50:06.706Z,100291
2017-07-27T05:52:34.872Z,100296
2017-07-27T05:55:03.031Z,100296
2017-07-27T05:57:31.469Z,100300
2017-07-27T06:00:00.411Z,100296
2017-07-27T06:02:28.587Z,100291
2017-07-27T06:04:56.781Z,100291
2017-07-27T06:07:24.943Z,100291
2017-07-27T06:09:53.106Z,100285
2017-07-27T06:12:22.953Z,100291
2017-07-27T06:14:51.136Z,100292
2017-07-27T06:17:19.307Z,100291
2017-07-27T06:19:47.490Z,100293
2017-07-27T06:22:16.441Z,100295
2017-07-27T06:24:44.608Z,100289
2017-07-27T06:27:12.805Z,100289
2017-07-27T06:29:40.959Z,100298
2017-07-27T06:32:09.129Z,100298
2017-07-27T06:34:37.397Z,100297
2017-07-27T06:37:05.557Z,100299
2017-07-27T06:39:33.732Z,100291
2017-07-27T06:42:01.933Z,100295
2017-07-27T06:44:30.240Z,100292
2017-07-27T06:46:58.417Z,100298
2017-07-27T06:49:26.621Z,100301
2017-07-27T06:51:54.796Z,100301
2017-07-27T06:54:23.714Z,100303
2017-07-27T06:56:51.920Z,100307
2017-07-27T06:59:20.069Z,100315
2017-07-27T07:01:48.252Z,100315
2017-07-27T07:04:16.464Z,100314
2017-07-27T07:06:44.640Z,100311
2017-07-27T07:09:12.809Z,100308
2017-07-27T07:11:41.008Z,100318
2017-07-27T07:14:09.951Z,100319
2017-07-27T07:16:38.129Z,100318
2017-07-27T07:19:06.314Z,100309
2017-07-27T07:21:34.500Z,100308
2017-07-27T07:24:02.658Z,100317
2017-07-27T07:26:30.952Z,100307
2017-07-27T07:28:59.114Z,100320
2017-07-27T07:31:27.271Z,100315
2017-07-27T07:33:55.462Z,100314
2017-07-27T07:36:23.638Z,100304
2017-07-27T07:38:51.820Z,100310
2017-07-27T07:41:20.001Z,100308
2017-07-27T07:43:48.158Z,100300
2017-07-27T07:46:16.310Z,100289
2017-07-27T07:48:44.521Z,100290
2017-07-27T07:51:12.678Z,100279
2017-07-27T07:53:40.861Z,100285
2017-07-27T07:56:09.069Z,100286
2017-07-27T07:58:37.248Z,100309
2017-07-27T08:01:06.183Z,100318
2017-07-27T08:03:34.393Z,100317
2017-07-27T08:06:02.546Z,100314
2017-07-27T08:08:30.726Z,100304
2017-07-27T08:10:58.906Z,100302
2017-07-27T08:13:27.080Z,100299
2017-07-27T08:15:55.243Z,100313
2017-07-27T08:18:23.845Z,100305
2017-07-27T08:20:52.096Z,100308
2017-07-27T08:23:20.243Z,100309
2017-07-27T08:25:48.454Z,100316
2017-07-27T08:28:16.623Z,100317
2017-07-27T08:30:44.811Z,100314
2017-07-27T08:33:13.020Z,100315
2017-07-27T08:35:41.980Z,100311
2017-07-27T08:38:10.162Z,100314
2017-07-27T08:40:38.368Z,100312
2017-07-27T08:43:07.318Z,100311
2017-07-27T08:45:35.488Z,100305
2017-07-27T08:48:03.700Z,100310
2017-07-27T08:50:32.799Z,100313
2017-07-27T08:53:01.725Z,100304
2017-07-27T08:55:29.913Z,100309
2017-07-27T08:57:58.084Z,100308
2017-07-27T09:00:26.265Z,100320
2017-07-27T09:02:54.454Z,100313
2017-07-27T09:05:22.649Z,100316
2017-07-27T09:07:50.807Z,100324
2017-07-27T09:10:18.993Z,100322
2017-07-27T09:12:47.179Z,100322
2017-07-27T09:15:15.350Z,100324
2017-07-27T09:17:43.552Z,100321
2017-07-27T09:20:11.714Z,100335
2017-07-27T09:22:40.654Z,100335
2017-07-27T09:25:08.857Z,100335
2017-07-27T09:27:37.054Z,100334
2017-07-27T09:30:05.237Z,100326
2017-07-27T09:32:34.193Z,100323
2017-07-27T09:35:02.380Z,100323
2017-07-27T09:37:30.554Z,100320
2017-07-27T09:39:58.765Z,100315
2017-07-27T09:42:26.941Z,100322
2017-07-27T09:44:55.112Z,100300
2017-07-27T09:47:23.299Z,100307
2017-07-27T09:49:51.479Z,100308
2017-07-27T09:52:19.633Z,100306
2017-07-27T09:54:47.837Z,100322
2017-07-27T09:57:36.773Z,100322
2017-07-27T10:00:04.954Z,100314
2017-07-27T10:02:33.134Z,100315
2017-07-27T10:05:01.319Z,100315
2017-07-27T10:07:29.524Z,100320
2017-07-27T10:09:57.789Z,100307
2017-07-27T10:12:25.951Z,100301
2017-07-27T10:14:54.145Z,100317
2017-07-27T10:17:22.321Z,100319
2017-07-27T10:19:50.515Z,100309
2017-07-27T10:22:19.506Z,100309
2017-07-27T10:24:47.669Z,100320
2017-07-27T10:27:15.846Z,100326
2017-07-27T10:29:44.026Z,100320
2017-07-27T10:32:12.193Z,100315
2017-07-27T10:34:40.371Z,100312
2017-07-27T10:37:08.572Z,100310
2017-07-27T10:39:37.490Z,100312
2017-07-27T10:42:05.677Z,100301
2017-07-27T10:44:33.863Z,100301
2017-07-27T10:47:02.035Z,100286
2017-07-27T10:49:30.197Z,100288
2017-07-27T10:51:58.400Z,100291
2017-07-27T10:54:26.561Z,100292
2017-07-27T10:56:54.739Z,100279
2017-07-27T10:59:22.942Z,100284
2017-07-27T11:01:51.129Z,100294
2017-07-27T11:04:20.082Z,100283
2017-07-27T11:06:48.826Z,100295
2017-07-27T11:09:16.981Z,100300
2017-07-27T11:11:45.149Z,100292
2017-07-27T11:14:13.336Z,100290
2017-07-27T11:16:41.508Z,100304
2017-07-27T11:19:10.481Z,100309
2017-07-27T11:21:38.672Z,100314
2017-07-27T11:24:06.826Z,100317
2017-07-27T11:26:34.985Z,100321
2017-07-27T11:29:03.190Z,100322
2017-07-27T11:31:31.372Z,100311
2017-07-27T11:33:59.528Z,100316
2017-07-27T11:36:27.717Z,100321
2017-07-27T11:38:55.878Z,100320
2017-07-27T11:41:24.044Z,100316
2017-07-27T11:43:52.245Z,100306
2017-07-27T11:46:20.421Z,100311
2017-07-27T11:48:48.610Z,100307
2017-07-27T11:51:17.585Z,100308
2017-07-27T11:53:45.765Z,100305
2017-07-27T11:56:14.718Z,100313
2017-07-27T11:58:42.922Z,100316
2017-07-27T12:01:11.079Z,100335
2017-07-27T12:03:39.259Z,100323
2017-07-27T12:06:07.464Z,100318
2017-07-27T12:08:36.381Z,100312
2017-07-27T12:11:04.549Z,100302
2017-07-27T12:13:32.732Z,100307
2017-07-27T12:16:00.906Z,100307
2017-07-27T12:18:29.080Z,100308
2017-07-27T12:20:57.283Z,100318
2017-07-27T12:23:25.453Z,100313
2017-07-27T12:25:53.605Z,100321
2017-07-27T12:28:21.795Z,100314
2017-07-27T12:30:49.957Z,100314
2017-07-27T12:33:18.114Z,100319
2017-07-27T12:35:46.297Z,100320
2017-07-27T12:38:14.454Z,100331
2017-07-27T12:40:43.382Z,100317
2017-07-27T12:43:11.592Z,100320
2017-07-27T12:45:39.738Z,100322
2017-07-27T12:48:07.904Z,100331
2017-07-27T12:50:36.099Z,100336
2017-07-27T12:53:04.250Z,100336
2017-07-27T12:55:32.404Z,100334
2017-07-27T12:58:01.352Z,100337
2017-07-27T13:00:29.498Z,100343
2017-07-27T13:02:57.665Z,100332
2017-07-27T13:05:25.841Z,100323
2017-07-27T13:07:53.998Z,100330
2017-07-27T13:10:22.171Z,100335
2017-07-27T13:12:51.205Z,100341
2017-07-27T13:15:19.360Z,100351
2017-07-27T13:17:47.512Z,100346
2017-07-27T13:20:16.455Z,100345
2017-07-27T13:22:44.630Z,100341
2017-07-27T13:25:12.814Z,100346
2017-07-27T13:27:41.008Z,100344
2017-07-27T13:30:09.185Z,100348
2017-07-27T13:32:37.339Z,100352
2017-07-27T13:35:06.297Z,100359
2017-07-27T13:37:34.443Z,100364
2017-07-27T13:40:02.612Z,100349
2017-07-27T13:42:30.794Z,100360
2017-07-27T13:44:58.965Z,100360
2017-07-27T13:47:27.135Z,100364
2017-07-27T13:49:55.350Z,100360
2017-07-27T13:52:23.511Z,100361
2017-07-27T13:54:51.662Z,100352
2017-07-27T13:57:20.624Z,100342
2017-07-27T13:59:48.779Z,100352
2017-07-27T14:02:16.933Z,100354
2017-07-27T14:04:45.142Z,100361
2017-07-27T14:07:13.313Z,100357
2017-07-27T14:09:41.461Z,100365
2017-07-27T14:12:09.663Z,100366
2017-07-27T14:14:37.818Z,100364
2017-07-27T14:17:05.986Z,100366
2017-07-27T14:19:34.188Z,100373
2017-07-27T14:22:02.342Z,100371
2017-07-27T14:24:30.515Z,100362
2017-07-27T14:26:58.715Z,100367
2017-07-27T14:29:26.884Z,100372
2017-07-27T14:31:55.055Z,100376
2017-07-27T14:34:23.264Z,100376
2017-07-27T14:36:51.417Z,100366
2017-07-27T14:39:19.564Z,100364
2017-07-27T14:41:47.761Z,100370
2017-07-27T14:44:15.922Z,100360
2017-07-27T14:46:44.127Z,100369
2017-07-27T14:49:12.325Z,100370
2017-07-27T14:51:41.251Z,100363
2017-07-27T14:54:09.425Z,100361
2017-07-27T14:56:37.616Z,100353
2017-07-27T14:59:05.793Z,100364
2017-07-27T15:01:33.947Z,100370
2017-07-27T15:04:02.119Z,100365
2017-07-27T15:06:30.279Z,100368
2017-07-27T15:08:59.221Z,100374
2017-07-27T15:11:27.394Z,100376
2017-07-27T15:13:55.541Z,100377
2017-07-27T15:16:23.692Z,100377
2017-07-27T15:18:52.653Z,100374
2017-07-27T15:21:20.801Z,100373
2017-07-27T15:23:48.971Z,100365
2017-07-27T15:26:17.156Z,100359
2017-07-27T15:28:45.303Z,100365
2017-07-27T15:31:13.454Z,100370
2017-07-27T15:33:42.415Z,100376
2017-07-27T15:36:10.566Z,100373
2017-07-27T15:38:38.742Z,100371
2017-07-27T15:41:06.915Z,100380
2017-07-27T15:43:35.084Z,100378
2017-07-27T15:46:03.236Z,100376
2017-07-27T15:48:31.431Z,100387
2017-07-27T15:50:59.583Z,100388
2017-07-27T15:53:27.742Z,100381
2017-07-27T15:55:56.710Z,100387
2017-07-27T15:58:24.869Z,100390
2017-07-27T16:00:53.037Z,100391
2017-07-27T16:03:21.218Z,100396
2017-07-27T16:05:49.379Z,100382
2017-07-27T16:08:17.531Z,100390
2017-07-27T16:10:45.723Z,100382
2017-07-27T16:13:13.887Z,100388
2017-07-27T16:15:42.057Z,100387
2017-07-27T16:18:10.267Z,100382
2017-07-27T16:20:38.413Z,100389
2017-07-27T16:23:06.586Z,100389
2017-07-27T16:25:34.761Z,100380
2017-07-27T16:28:02.948Z,100388
2017-07-27T16:30:31.094Z,100386
2017-07-27T16:32:59.275Z,100383
2017-07-27T16:35:27.458Z,100371
2017-07-27T16:37:55.655Z,100361
2017-07-27T16:40:23.859Z,100370
2017-07-27T16:42:52.016Z,100379
2017-07-27T16:45:20.184Z,100381
2017-07-27T16:47:48.378Z,100381
2017-07-27T16:50:16.568Z,100390
2017-07-27T16:52:45.503Z,100397
2017-07-27T16:55:13.698Z,100395
2017-07-27T16:57:41.868Z,100385
2017-07-27T17:00:10.039Z,100390
2017-07-27T17:02:38.223Z,100394
2017-07-27T17:05:06.370Z,100402
2017-07-27T17:07:34.521Z,100406
2017-07-27T17:10:03.467Z,100392
2017-07-27T17:12:31.640Z,100398
2017-07-27T17:14:59.786Z,100403
2017-07-27T17:17:27.981Z,100401
2017-07-27T17:19:56.145Z,100403
2017-07-27T17:22:24.302Z,100395
2017-07-27T17:24:52.479Z,100388
2017-07-27T17:27:20.648Z,100387
2017-07-27T17:29:48.803Z,100385
2017-07-27T17:32:17.770Z,100375
2017-07-27T17:34:45.922Z,100378
2017-07-27T17:37:14.091Z,100384
2017-07-27T17:39:42.289Z,100376
2017-07-27T17:42:10.455Z,100381
2017-07-27T17:44:39.059Z,100379
2017-07-27T17:47:07.244Z,100376
2017-07-27T17:49:36.172Z,100387
2017-07-27T17:52:04.330Z,100393
2017-07-27T17:54:32.534Z,100397
2017-07-27T17:57:00.714Z,100394
2017-07-27T17:59:28.890Z,100394
2017-07-27T18:01:57.077Z,100394
2017-07-27T18:04:25.245Z,100387
2017-07-27T18:06:53.424Z,100390
2017-07-27T18:09:21.597Z,100387
2017-07-27T18:11:49.757Z,100391
2017-07-27T18:14:17.937Z,100400
2017-07-27T18:16:46.115Z,100399
2017-07-27T18:19:14.274Z,100408
2017-07-27T18:21:42.426Z,100411
2017-07-27T18:24:10.621Z,100411
2017-07-27T18:26:38.774Z,100401
2017-07-27T18:29:06.934Z,100402
2017-07-27T18:31:35.886Z,100406
2017-07-27T18:34:04.093Z,100405
2017-07-27T18:36:33.021Z,100414
2017-07-27T18:39:01.248Z,100413
2017-07-27T18:41:29.429Z,100412
2017-07-27T18:43:57.584Z,100407
2017-07-27T18:46:25.762Z,100413
2017-07-27T18:48:53.915Z,100418
2017-07-27T18:51:22.117Z,100422
2017-07-27T18:53:50.340Z,100421
2017-07-27T18:56:18.517Z,100418
2017-07-27T18:58:46.692Z,100410
2017-07-27T19:01:14.891Z,100412
2017-07-27T19:03:43.073Z,100403
2017-07-27T19:06:11.221Z,100398
2017-07-27T19:08:39.432Z,100393
2017-07-27T19:11:07.593Z,100395
2017-07-27T19:13:35.746Z,100400
2017-07-27T19:16:04.367Z,100405
2017-07-27T19:18:32.544Z,100409
2017-07-27T19:21:00.718Z,100404
2017-07-27T19:23:28.903Z,100408
2017-07-27T19:25:57.080Z,100398
2017-07-27T19:28:25.250Z,100405
2017-07-27T19:30:53.461Z,100402
2017-07-27T19:33:21.630Z,100408
2017-07-27T19:35:50.572Z,100398
2017-07-27T19:38:18.762Z,100404
2017-07-27T19:40:46.912Z,100406
2017-07-27T19:43:15.073Z,100408
2017-07-27T19:45:43.269Z,100407
2017-07-27T19:48:11.431Z,100416
2017-07-27T19:50:39.587Z,100411
2017-07-27T19:53:07.790Z,100404
2017-07-27T19:55:35.973Z,100405
2017-07-27T19:58:04.157Z,100405
2017-07-27T20:00:32.352Z,100416
2017-07-27T20:03:00.541Z,100415
2017-07-27T20:05:29.470Z,100414
2017-07-27T20:07:57.653Z,100412
2017-07-27T20:10:25.811Z,100411
2017-07-27T20:12:53.970Z,100424
2017-07-27T20:15:22.177Z,100423
2017-07-27T20:17:50.338Z,100429
2017-07-27T20:20:18.485Z,100431
2017-07-27T20:22:47.430Z,100427
2017-07-27T20:25:15.616Z,100433
2017-07-27T20:27:43.779Z,100433
2017-07-27T20:30:11.975Z,100431
2017-07-27T20:32:40.145Z,100435
2017-07-27T20:35:08.295Z,100439
2017-07-27T20:37:36.481Z,100435
2017-07-27T20:40:04.625Z,100427
2017-07-27T20:42:32.800Z,100430
2017-07-27T20:45:00.979Z,100434
2017-07-27T20:47:29.138Z,100427
2017-07-27T20:49:57.325Z,100426
2017-07-27T20:52:25.512Z,100428
2017-07-27T20:54:53.670Z,100432
2017-07-27T20:57:21.824Z,100425
2017-07-27T20:59:50.011Z,100429
2017-07-27T21:02:18.180Z,100425
2017-07-27T21:04:46.333Z,100422
2017-07-27T21:07:15.323Z,100428
2017-07-27T21:09:44.247Z,100419
2017-07-27T21:12:12.424Z,100422
2017-07-27T21:14:40.621Z,100417
2017-07-27T21:17:08.774Z,100410
2017-07-27T21:19:36.940Z,100403
2017-07-27T21:22:05.130Z,100412
2017-07-27T21:24:33.296Z,100405
2017-07-27T21:27:01.458Z,100410
2017-07-27T21:29:29.672Z,100413
2017-07-27T21:31:57.861Z,100415
2017-07-27T21:34:26.016Z,100405
2017-07-27T21:36:54.213Z,100398
2017-07-27T21:39:22.371Z,100402
2017-07-27T21:41:50.534Z,100398
2017-07-27T21:44:18.720Z,100394
2017-07-27T21:46:46.910Z,100398
2017-07-27T21:49:15.084Z,100401
2017-07-27T21:51:43.280Z,100401
2017-07-27T21:54:12.243Z,100403
2017-07-27T21:56:40.409Z,100392
2017-07-27T21:59:08.598Z,100395
2017-07-27T22:01:36.770Z,100402
2017-07-27T22:04:04.914Z,100394
2017-07-27T22:06:33.124Z,100400
2017-07-27T22:09:01.276Z,100400
2017-07-27T22:11:29.447Z,100411
2017-07-27T22:13:57.653Z,100418
2017-07-27T22:16:25.821Z,100411
2017-07-27T22:18:53.987Z,100415
2017-07-27T22:21:22.181Z,100422
2017-07-27T22:23:50.338Z,100418
2017-07-27T22:26:18.503Z,100422
2017-07-27T22:28:46.712Z,100431
2017-07-27T22:31:14.870Z,100432
2017-07-27T22:33:43.055Z,100425
2017-07-27T22:36:11.243Z,100439
2017-07-27T22:38:40.191Z,100430
2017-07-27T22:41:08.369Z,100435
2017-07-27T22:43:36.564Z,100430
2017-07-27T22:46:04.719Z,100436
2017-07-27T22:48:32.914Z,100442
2017-07-27T22:51:01.288Z,100439
2017-07-27T22:53:29.468Z,100439
2017-07-27T22:55:57.641Z,100440
2017-07-27T22:58:25.872Z,100457
2017-07-27T23:00:54.041Z,100436
2017-07-27T23:03:22.216Z,100430
2017-07-27T23:05:50.413Z,100432
2017-07-27T23:08:18.594Z,100447
2017-07-27T23:10:46.773Z,100443
2017-07-27T23:13:14.973Z,100440
2017-07-27T23:15:43.136Z,100452
2017-07-27T23:18:11.302Z,100453
2017-07-27T23:20:39.494Z,100450
2017-07-27T23:23:07.664Z,100449
2017-07-27T23:25:35.848Z,100453
2017-07-27T23:28:04.049Z,100462
2017-07-27T23:30:32.986Z,100466
2017-07-27T23:33:01.152Z,100461
2017-07-27T23:35:29.353Z,100471
2017-07-27T23:37:57.529Z,100463
2017-07-27T23:40:25.686Z,100469
2017-07-27T23:42:53.870Z,100468
2017-07-27T23:45:22.047Z,100462
2017-07-27T23:47:50.205Z,100454
2017-07-27T23:50:18.401Z,100454
2017-07-27T23:52:46.550Z,100447
2017-07-27T23:55:14.693Z,100457
2017-07-27T23:57:43.657Z,100458
